默认 日期 大小 文件数 浏览量 最新下载 xml
critters磁力链接相关资源由用户搜索指令自动获取,结果来源于网络,本站不存储任何资料,亦不承担任何责任,请于24小时内删除,搜索到493个磁力,用时0ms。
    {"RARBG.txt": 30, "Vampirina.S01E23E24.Critters-Cuddle.Monster.720p.DSNY.WEB-DL.AAC2.0.x264-TVSmash.mkv": 619028296, "Vampirina.S01E23E24.Critters-Cuddle.Monster.720p.DSNY.WEB-DL.AAC2.0.x264-TVSmash.srt": 35749}
创建时间: 2018-10-28 11:57:29 大小:590.39 MB 文件数量:3 热度:37 最近下载:2025-09-16 23:51:04
    {"02 - Changez.mp3": 5922816, "04 - Freak Moo.mp3": 3602432, "05 - Work Coke.mp3": 5902336, "10 - Fuck Dunce.mp3": 4552192, "08 - Satisfunshin.mp3": 4512256, "11 - Green Mushup.mp3": 8962560, "09 - Wake Up Mrray.mp3": 6612480, "12 - Mother Flight.mp3": ...
创建时间: 2018-10-28 16:10:08 大小:92.11 MB 文件数量:15 热度:25 最近下载:2025-09-27 00:44:02
    {"VIDEO_TS.BUP": 14336, "VIDEO_TS.IFO": 14336, "VIDEO_TS.VOB": 34816, "VTS_01_0.BUP": 69632, "VTS_01_0.IFO": 69632, "VTS_01_0.VOB": 1906688, "VTS_01_1.VOB": 1073739776, "VTS_01_2.VOB": 1073739776, "VTS_01_3.VOB": 1073739776, "VTS_01_4.VOB": 1073739776, " ...
创建时间: 2018-10-29 09:03:10 大小:4.28 GB 文件数量:15 热度:23 最近下载:2025-09-18 21:36:09
    {"cover.jpg": 34887, "www.alt-torrent.com.txt": 267, "www.alt-torrent.com.url": 53, "Critters 4 (1992) 1080p LAT - Mr.Tiny.mkv": 3253192340}
创建时间: 2018-10-29 14:54:28 大小:3.03 GB 文件数量:4 热度:22 最近下载:2025-04-23 06:24:01
    ... DVDRip.RMVB-ZG.rmvb": 324914915, "Critters.1986.PL.DVDRip.RMVB-ZG ... DVDRip.RMVB-ZG.rmvb": 324602541, "Critters.2.1988.PL.DVDRip.RMVB ... DVDRip.RMVB-ZG.rmvb": 321238738, "Critters.3.1991.PL.DVDRip.RMVB ... .RMVB-ZG.rmvb": 362102900, "Critters.4.1991.PL.DVDRip.RMVB ...
创建时间: 2018-10-29 18:37:25 大小:1.26 GB 文件数量:8 热度:16 最近下载:2025-05-17 09:03:01
    {"RARBG.com.txt": 34, "Critters.4.1992.1080p.WEB-DL.DD5.1.H264-FGT.mkv": 3887224735, "Critters.4.1992.1080p.WEB-DL.DD5.1.H264-FGT.nfo": 4485}
创建时间: 2018-10-30 05:32:10 大小:3.62 GB 文件数量:3 热度:16 最近下载:2025-04-13 04:35:02
    ... .flac": 52279529, "08. Skyhighatrist - Crusty Critters.flac": 45338327, "03. Jacksource - Ancient ...
创建时间: 2018-10-30 10:00:47 大小:506.69 MB 文件数量:11 热度:15 最近下载:2025-06-26 19:47:02
    ... .jpg": 338659, "魔精 Critters (1986).jpg": 3384400, "魔 ... 精3 Critters 3 (1991).jpg": 2879963, ... "魔精4 Critters 4 (1992).jpg": 1925654, ... ).jpg": 1931211, "魔精 Critters‎ [1986][WEB720p][内封简 ... ": 3163398812, "魔精2 Critters 2 The Main Course [ ...
创建时间: 2018-10-30 15:54:09 大小:10.74 GB 文件数量:25 热度:66 最近下载:2025-09-21 13:06:02
    {"RARBG.com.txt": 34, "Critters.1986.720p.WEB-DL.AAC2.0.H264-FGT.mkv": 2641007863}
创建时间: 2018-10-30 18:25:27 大小:2.46 GB 文件数量:2 热度:14 最近下载:2025-01-05 11:55:06
    {"Critters.1986.720p.WEB-DL.2xRus.Eng.mkv": 3370531994, "Critters.2.1988.720p.WEB-DL.3xRus.Eng.mkv": 3867565482, "Critters.3.1991.720p.WEB-DL.7xRus.Eng.mkv": 4039456245, "Critters.4.1992.720p.WEB-DL.6xRus.Eng.mkv": 4151247012}
创建时间: 2018-10-30 19:27:50 大小:14.37 GB 文件数量:4 热度:15 最近下载:2025-01-11 12:33:03
    ... MicroDVD]": {"VobSub-IDX": {"01 Critters 1 - Comedy Horror 1986 English ... .idx": 31777, "01 Critters 1 - Comedy Horror 1986 ... English.sub": 3512320}, "01 Critters 1 - Comedy Horror 1986 English ... .srt": 48175, "01 Critters 1 - Comedy Horror 1986 ...
创建时间: 2018-10-31 09:10:46 大小:6.01 GB 文件数量:40 热度:17 最近下载:2025-06-23 03:32:01
    {"01.jpg": 57533, "02.jpg": 193126, "Brandi Belle Creepy Couch Critters 08-18-09.wmv": 237977419}
创建时间: 2018-10-31 16:55:13 大小:227.19 MB 文件数量:3 热度:17 最近下载:2025-08-13 14:04:02
    {"Critters.1986.WEB-DLRip.avi": 1560377344, "Critters.1986.WEB-DLRip.ENG.srt": 46270, "Critters.1986.WEB-DLRip.RUS.srt": 48443, "Critters.1986.WEB-DLRip.UKR.srt": 46962}
创建时间: 2018-10-31 17:38:12 大小:1.45 GB 文件数量:4 热度:11 最近下载:2024-09-03 06:28:01
    {"Subs": {"2_Eng.srt": 53321}, "RARBG.COM.mp4": 1016764, "RARBG.COM.txt": 34, "Critters.1986.WEBRip.x264-RARBG.mp4": 788352869, "Critters.1986.WEBRip.x264-RARBG.nfo": 4157}
创建时间: 2018-10-31 20:57:17 大小:752.86 MB 文件数量:5 热度:14 最近下载:2025-01-04 10:48:07
    ... .XviD-VH-PROD.srt": 46267}, "Critters (1986) DVDRip - roflcopter2110.mp4": ... (1991) DVDRip - roflcopter2110.mp4": 572458672, "Critters 4 (1992) DVDRip - roflcopter2110.mp4 ... ": 638313970, "Critters 2 - The Main Course (1988 ...
创建时间: 2018-10-31 22:51:00 大小:2.22 GB 文件数量:11 热度:14 最近下载:2025-04-13 04:35:02
    {"Critters 1 (1986).mkv": 3540889836, "Critters 2 (1988).mkv": 3607651624, "Critters 3 (1991).mkv": 3504816051, "Critters 4 (1992).mkv": 3699725908}
创建时间: 2018-11-01 11:57:03 大小:13.37 GB 文件数量:4 热度:11 最近下载:2024-09-03 06:56:01
    {"RARBG.mp4": 1016764, "RARBG.txt": 30, "Critters.1986.WEB-DL.x264-RARBG.mp4": 789971023, "Critters.1986.WEB-DL.x264-RARBG.nfo": 4158}
创建时间: 2018-11-03 00:08:06 大小:754.35 MB 文件数量:4 热度:12 最近下载:2024-09-03 14:50:02
    {"Critters4.rar": 1507480407}
创建时间: 2018-11-03 16:56:50 大小:1.4 GB 文件数量:1 热度:14 最近下载:2024-09-01 16:47:01
    {"RARBG.com.txt": 34, "Critters.4.1992.720p.WEB-DL.DD5.1.H264-FGT.mkv": 3162252797}
创建时间: 2018-11-04 13:19:07 大小:2.95 GB 文件数量:2 热度:15 最近下载:2025-04-13 13:26:02
    {"RARBG.txt": 31, "Critters.1986.1080p.WEB-DL.DD.+2.0.H264-oki.mkv": 7069464699}
创建时间: 2018-11-04 22:52:12 大小:6.58 GB 文件数量:2 热度:15 最近下载:2025-07-15 11:42:02